sensor_id;sensor_type;location;lat;lon;timestamp;temperature;humidity
53204;DHT22;39086;54.424;18.456;2023-07-13T02:13:48;14.30;99.90
53204;DHT22;39086;54.424;18.456;2023-07-13T02:15:53;14.30;99.90
53204;DHT22;39086;54.424;18.456;2023-07-13T02:17:58;14.30;99.90
53204;DHT22;39086;54.424;18.456;2023-07-13T02:19:02;14.30;99.90
53204;DHT22;39086;54.424;18.456;2023-07-13T02:20:05;14.30;99.90
53204;DHT22;39086;54.424;18.456;2023-07-13T02:23:16;14.50;99.90
53204;DHT22;39086;54.424;18.456;2023-07-13T02:24:20;14.20;99.90
53204;DHT22;39086;54.424;18.456;2023-07-13T02:25:22;14.20;99.90
53204;DHT22;39086;54.424;18.456;2023-07-13T02:29:35;14.10;99.90
53204;DHT22;39086;54.424;18.456;2023-07-13T02:30:38;14.20;99.90
53204;DHT22;39086;54.424;18.456;2023-07-13T02:31:40;14.20;99.90
53204;DHT22;39086;54.424;18.456;2023-07-13T02:32:43;14.20;99.90
53204;DHT22;39086;54.424;18.456;2023-07-13T02:33:46;14.30;99.90
53204;DHT22;39086;54.424;18.456;2023-07-13T02:34:49;14.20;99.90
53204;DHT22;39086;54.424;18.456;2023-07-13T02:35:51;14.30;99.90
53204;DHT22;39086;54.424;18.456;2023-07-13T03:18:07;14.50;99.90
53204;DHT22;39086;54.424;18.456;2023-07-13T03:19:09;14.50;99.90
53204;DHT22;39086;54.424;18.456;2023-07-13T03:20:12;14.50;99.90
53204;DHT22;39086;54.424;18.456;2023-07-13T03:22:18;14.40;99.90
53204;DHT22;39086;54.424;18.456;2023-07-13T03:23:22;14.50;99.90
53204;DHT22;39086;54.424;18.456;2023-07-13T03:24:25;14.40;99.90
53204;DHT22;39086;54.424;18.456;2023-07-13T03:25:27;14.40;99.90
53204;DHT22;39086;54.424;18.456;2023-07-13T03:26:30;14.40;99.90
53204;DHT22;39086;54.424;18.456;2023-07-13T03:27:34;14.40;99.90
53204;DHT22;39086;54.424;18.456;2023-07-13T03:30:43;14.40;99.90
53204;DHT22;39086;54.424;18.456;2023-07-13T03:34:54;15.20;99.90
53204;DHT22;39086;54.424;18.456;2023-07-13T03:35:57;14.60;99.90
53204;DHT22;39086;54.424;18.456;2023-07-13T03:36:59;14.60;99.90
53204;DHT22;39086;54.424;18.456;2023-07-13T03:42:17;14.80;99.90
53204;DHT22;39086;54.424;18.456;2023-07-13T03:43:20;14.70;99.90
53204;DHT22;39086;54.424;18.456;2023-07-13T03:44:23;14.70;99.90
53204;DHT22;39086;54.424;18.456;2023-07-13T03:45:25;14.80;99.90
53204;DHT22;39086;54.424;18.456;2023-07-13T03:46:28;14.80;99.90
53204;DHT22;39086;54.424;18.456;2023-07-13T03:47:31;14.80;99.90
53204;DHT22;39086;54.424;18.456;2023-07-13T03:49:36;14.70;99.90
53204;DHT22;39086;54.424;18.456;2023-07-13T03:50:39;14.80;99.90
53204;DHT22;39086;54.424;18.456;2023-07-13T03:51:41;14.90;99.90
53204;DHT22;39086;54.424;18.456;2023-07-13T03:52:45;14.90;99.90
53204;DHT22;39086;54.424;18.456;2023-07-13T03:53:47;14.90;99.90
53204;DHT22;39086;54.424;18.456;2023-07-13T03:54:51;14.90;99.90
53204;DHT22;39086;54.424;18.456;2023-07-13T03:55:53;14.90;99.90
53204;DHT22;39086;54.424;18.456;2023-07-13T03:56:56;14.90;99.90
53204;DHT22;39086;54.424;18.456;2023-07-13T03:57:59;14.90;99.90
53204;DHT22;39086;54.424;18.456;2023-07-13T03:59:04;14.90;99.90
53204;DHT22;39086;54.424;18.456;2023-07-13T04:08:34;15.10;99.90
53204;DHT22;39086;54.424;18.456;2023-07-13T04:09:37;15.30;99.90
53204;DHT22;39086;54.424;18.456;2023-07-13T04:11:43;15.40;99.90
53204;DHT22;39086;54.424;18.456;2023-07-13T04:12:45;15.50;99.90
53204;DHT22;39086;54.424;18.456;2023-07-13T04:13:49;15.60;99.90
53204;DHT22;39086;54.424;18.456;2023-07-13T04:14:53;15.60;99.90
53204;DHT22;39086;54.424;18.456;2023-07-13T04:15:56;15.60;99.90
53204;DHT22;39086;54.424;18.456;2023-07-13T04:16:58;15.70;99.90
53204;DHT22;39086;54.424;18.456;2023-07-13T04:21:11;15.90;99.90
53204;DHT22;39086;54.424;18.456;2023-07-13T04:22:13;15.90;99.90
53204;DHT22;39086;54.424;18.456;2023-07-13T04:25:22;16.00;99.90
53204;DHT22;39086;54.424;18.456;2023-07-13T04:26:24;16.10;99.90
53204;DHT22;39086;54.424;18.456;2023-07-13T04:27:27;16.10;99.90
53204;DHT22;39086;54.424;18.456;2023-07-13T04:48:37;16.80;99.90
53204;DHT22;39086;54.424;18.456;2023-07-13T04:49:39;16.80;99.90
53204;DHT22;39086;54.424;18.456;2023-07-13T04:50:42;16.90;99.90
53204;DHT22;39086;54.424;18.456;2023-07-13T04:51:45;16.90;99.90
53204;DHT22;39086;54.424;18.456;2023-07-13T04:52:48;17.00;99.90
53204;DHT22;39086;54.424;18.456;2023-07-13T04:56:04;17.00;99.90
53204;DHT22;39086;54.424;18.456;2023-07-13T05:10:52;17.40;99.90
53204;DHT22;39086;54.424;18.456;2023-07-13T05:12:57;17.60;99.90
53204;DHT22;39086;54.424;18.456;2023-07-13T05:14:00;17.60;99.90
53204;DHT22;39086;54.424;18.456;2023-07-13T05:15:03;17.60;99.90
53204;DHT22;39086;54.424;18.456;2023-07-13T05:18:14;17.60;99.90
53204;DHT22;39086;54.424;18.456;2023-07-13T05:19:16;17.70;99.90
53204;DHT22;39086;54.424;18.456;2023-07-13T05:20:19;17.80;99.90
53204;DHT22;39086;54.424;18.456;2023-07-13T05:29:46;17.90;99.90
53204;DHT22;39086;54.424;18.456;2023-07-13T05:30:49;18.00;99.90
53204;DHT22;39086;54.424;18.456;2023-07-13T05:31:52;18.10;99.90
53204;DHT22;39086;54.424;18.456;2023-07-13T05:42:23;18.20;99.90
53204;DHT22;39086;54.424;18.456;2023-07-13T05:44:28;18.30;99.90
53204;DHT22;39086;54.424;18.456;2023-07-13T06:33:55;18.80;99.90
53204;DHT22;39086;54.424;18.456;2023-07-13T06:34:58;19.00;99.90
53204;DHT22;39086;54.424;18.456;2023-07-13T06:51:48;19.10;99.90
53204;DHT22;39086;54.424;18.456;2023-07-13T06:52:52;19.40;99.90
53204;DHT22;39086;54.424;18.456;2023-07-13T06:53:54;19.50;99.90
53204;DHT22;39086;54.424;18.456;2023-07-13T06:54:57;19.50;99.90
53204;DHT22;39086;54.424;18.456;2023-07-13T06:55:59;19.50;99.90
53204;DHT22;39086;54.424;18.456;2023-07-13T06:57:03;19.60;99.90
53204;DHT22;39086;54.424;18.456;2023-07-13T06:58:06;19.60;99.90
53204;DHT22;39086;54.424;18.456;2023-07-13T06:59:08;19.60;99.90
53204;DHT22;39086;54.424;18.456;2023-07-13T07:00:12;19.60;99.90
53204;DHT22;39086;54.424;18.456;2023-07-13T07:01:14;19.60;99.90
53204;DHT22;39086;54.424;18.456;2023-07-13T07:02:17;19.70;99.90
53204;DHT22;39086;54.424;18.456;2023-07-13T07:03:20;19.70;99.90
53204;DHT22;39086;54.424;18.456;2023-07-13T07:04:23;19.70;99.90
53204;DHT22;39086;54.424;18.456;2023-07-13T07:07:31;19.90;99.90
53204;DHT22;39086;54.424;18.456;2023-07-13T07:08:35;20.00;99.90
53204;DHT22;39086;54.424;18.456;2023-07-13T07:09:37;20.00;99.90
53204;DHT22;39086;54.424;18.456;2023-07-13T07:10:40;20.00;99.90
53204;DHT22;39086;54.424;18.456;2023-07-13T07:11:43;20.00;99.90
53204;DHT22;39086;54.424;18.456;2023-07-13T07:13:03;20.00;99.90
53204;DHT22;39086;54.424;18.456;2023-07-13T07:14:06;20.00;99.90
53204;DHT22;39086;54.424;18.456;2023-07-13T07:15:10;20.00;99.90
53204;DHT22;39086;54.424;18.456;2023-07-13T07:16:12;20.00;99.90
53204;DHT22;39086;54.424;18.456;2023-07-13T07:18:17;20.00;99.90
53204;DHT22;39086;54.424;18.456;2023-07-13T07:19:20;20.10;99.90
53204;DHT22;39086;54.424;18.456;2023-07-13T07:20:22;20.00;99.90
53204;DHT22;39086;54.424;18.456;2023-07-13T07:21:26;20.10;99.90
53204;DHT22;39086;54.424;18.456;2023-07-13T07:31:07;19.90;99.90
53204;DHT22;39086;54.424;18.456;2023-07-13T07:32:12;20.00;99.90
53204;DHT22;39086;54.424;18.456;2023-07-13T07:33:35;20.00;99.90
53204;DHT22;39086;54.424;18.456;2023-07-13T07:34:38;20.10;99.90
53204;DHT22;39086;54.424;18.456;2023-07-13T07:35:40;20.20;99.90
53204;DHT22;39086;54.424;18.456;2023-07-13T07:37:04;20.20;99.90
53204;DHT22;39086;54.424;18.456;2023-07-13T07:38:09;20.30;99.90
53204;DHT22;39086;54.424;18.456;2023-07-13T07:39:12;20.30;99.90
53204;DHT22;39086;54.424;18.456;2023-07-13T07:40:16;20.40;99.90
53204;DHT22;39086;54.424;18.456;2023-07-13T07:41:22;20.40;99.90
53204;DHT22;39086;54.424;18.456;2023-07-13T07:43:30;20.50;99.90
53204;DHT22;39086;54.424;18.456;2023-07-13T07:46:41;20.70;99.90
53204;DHT22;39086;54.424;18.456;2023-07-13T07:47:44;20.70;99.90
53204;DHT22;39086;54.424;18.456;2023-07-13T07:48:46;20.80;99.90
53204;DHT22;39086;54.424;18.456;2023-07-13T07:49:50;20.90;99.90
53204;DHT22;39086;54.424;18.456;2023-07-13T07:50:52;21.00;99.90
53204;DHT22;39086;54.424;18.456;2023-07-13T07:51:55;20.90;99.90
53204;DHT22;39086;54.424;18.456;2023-07-13T07:52:57;20.90;99.90
53204;DHT22;39086;54.424;18.456;2023-07-13T07:54:00;20.80;99.90
53204;DHT22;39086;54.424;18.456;2023-07-13T07:55:03;20.80;99.90
53204;DHT22;39086;54.424;18.456;2023-07-13T07:56:10;20.60;99.90
53204;DHT22;39086;54.424;18.456;2023-07-13T08:01:55;20.70;99.90
53204;DHT22;39086;54.424;18.456;2023-07-13T08:03:02;20.70;99.90
53204;DHT22;39086;54.424;18.456;2023-07-13T08:05:30;20.80;99.90
53204;DHT22;39086;54.424;18.456;2023-07-13T08:06:35;20.90;99.90
53204;DHT22;39086;54.424;18.456;2023-07-13T08:07:41;20.80;99.90
53204;DHT22;39086;54.424;18.456;2023-07-13T08:08:43;20.90;99.90
53204;DHT22;39086;54.424;18.456;2023-07-13T08:09:48;20.90;99.90
53204;DHT22;39086;54.424;18.456;2023-07-13T08:10:54;21.00;99.90
53204;DHT22;39086;54.424;18.456;2023-07-13T08:12:04;21.00;99.90
53204;DHT22;39086;54.424;18.456;2023-07-13T08:13:09;21.00;99.90
53204;DHT22;39086;54.424;18.456;2023-07-13T08:14:13;21.00;99.90
53204;DHT22;39086;54.424;18.456;2023-07-13T08:15:17;21.10;99.90
53204;DHT22;39086;54.424;18.456;2023-07-13T08:16:22;21.10;99.90
53204;DHT22;39086;54.424;18.456;2023-07-13T08:17:24;21.10;99.90
53204;DHT22;39086;54.424;18.456;2023-07-13T08:18:28;21.10;99.90
53204;DHT22;39086;54.424;18.456;2023-07-13T08:19:30;21.00;99.90
53204;DHT22;39086;54.424;18.456;2023-07-13T08:32:11;21.30;99.90
53204;DHT22;39086;54.424;18.456;2023-07-13T08:33:14;21.40;99.90
53204;DHT22;39086;54.424;18.456;2023-07-13T08:34:17;21.50;99.90
53204;DHT22;39086;54.424;18.456;2023-07-13T08:36:22;21.70;99.90
53204;DHT22;39086;54.424;18.456;2023-07-13T08:37:27;21.60;99.90
53204;DHT22;39086;54.424;18.456;2023-07-13T08:38:30;21.60;99.90
53204;DHT22;39086;54.424;18.456;2023-07-13T08:39:32;21.60;99.90
53204;DHT22;39086;54.424;18.456;2023-07-13T08:40:37;21.80;99.90
53204;DHT22;39086;54.424;18.456;2023-07-13T08:43:54;21.90;99.90
53204;DHT22;39086;54.424;18.456;2023-07-13T08:45:07;21.90;99.90
53204;DHT22;39086;54.424;18.456;2023-07-13T08:46:15;21.90;99.90
53204;DHT22;39086;54.424;18.456;2023-07-13T08:50:32;21.60;99.90
53204;DHT22;39086;54.424;18.456;2023-07-13T08:53:00;21.50;99.90
53204;DHT22;39086;54.424;18.456;2023-07-13T08:54:12;21.50;99.90
53204;DHT22;39086;54.424;18.456;2023-07-13T08:55:19;21.50;99.90
53204;DHT22;39086;54.424;18.456;2023-07-13T08:56:27;21.40;99.90
53204;DHT22;39086;54.424;18.456;2023-07-13T08:57:33;21.30;99.90
53204;DHT22;39086;54.424;18.456;2023-07-13T08:58:39;21.40;99.90
53204;DHT22;39086;54.424;18.456;2023-07-13T08:59:44;21.50;99.90
53204;DHT22;39086;54.424;18.456;2023-07-13T09:00:53;21.40;99.90
53204;DHT22;39086;54.424;18.456;2023-07-13T09:02:16;21.50;99.90
53204;DHT22;39086;54.424;18.456;2023-07-13T09:03:23;21.80;99.90
53204;DHT22;39086;54.424;18.456;2023-07-13T09:04:29;21.80;99.90
53204;DHT22;39086;54.424;18.456;2023-07-13T09:05:38;21.90;99.90
53204;DHT22;39086;54.424;18.456;2023-07-13T09:06:49;22.00;99.90
53204;DHT22;39086;54.424;18.456;2023-07-13T09:09:35;22.10;99.90
53204;DHT22;39086;54.424;18.456;2023-07-13T09:10:44;22.30;99.90
53204;DHT22;39086;54.424;18.456;2023-07-13T09:35:56;22.70;99.90
53204;DHT22;39086;54.424;18.456;2023-07-13T09:37:02;22.70;99.90
53204;DHT22;39086;54.424;18.456;2023-07-13T09:38:11;22.90;99.90
53204;DHT22;39086;54.424;18.456;2023-07-13T09:39:24;23.00;99.90
53204;DHT22;39086;54.424;18.456;2023-07-13T09:40:35;23.20;99.90
53204;DHT22;39086;54.424;18.456;2023-07-13T09:44:02;23.50;99.90
53204;DHT22;39086;54.424;18.456;2023-07-13T09:45:10;23.40;99.90
53204;DHT22;39086;54.424;18.456;2023-07-13T09:46:22;23.40;99.90
53204;DHT22;39086;54.424;18.456;2023-07-13T09:47:26;23.60;99.90
53204;DHT22;39086;54.424;18.456;2023-07-13T09:48:34;23.60;99.90
53204;DHT22;39086;54.424;18.456;2023-07-13T09:49:37;23.50;99.90
53204;DHT22;39086;54.424;18.456;2023-07-13T09:50:41;23.50;99.90
53204;DHT22;39086;54.424;18.456;2023-07-13T09:51:44;23.60;99.90
53204;DHT22;39086;54.424;18.456;2023-07-13T09:52:49;23.50;99.90
53204;DHT22;39086;54.424;18.456;2023-07-13T09:53:54;23.50;99.90
53204;DHT22;39086;54.424;18.456;2023-07-13T09:54:57;23.50;99.90
53204;DHT22;39086;54.424;18.456;2023-07-13T09:56:00;23.00;99.90
53204;DHT22;39086;54.424;18.456;2023-07-13T09:57:13;22.70;99.90
53204;DHT22;39086;54.424;18.456;2023-07-13T09:58:16;22.70;99.90
53204;DHT22;39086;54.424;18.456;2023-07-13T09:59:22;22.60;99.90
53204;DHT22;39086;54.424;18.456;2023-07-13T10:00:28;22.60;99.90
53204;DHT22;39086;54.424;18.456;2023-07-13T10:01:35;22.10;99.90
53204;DHT22;39086;54.424;18.456;2023-07-13T10:02:38;21.80;99.90
53204;DHT22;39086;54.424;18.456;2023-07-13T10:03:53;21.60;99.90
53204;DHT22;39086;54.424;18.456;2023-07-13T10:04:59;21.20;99.90
53204;DHT22;39086;54.424;18.456;2023-07-13T10:06:11;21.00;99.90
53204;DHT22;39086;54.424;18.456;2023-07-13T10:07:13;21.00;99.90
53204;DHT22;39086;54.424;18.456;2023-07-13T10:08:30;20.90;99.90
53204;DHT22;39086;54.424;18.456;2023-07-13T10:09:34;20.70;99.90
53204;DHT22;39086;54.424;18.456;2023-07-13T10:14:54;20.30;99.90
53204;DHT22;39086;54.424;18.456;2023-07-13T10:20:27;20.30;99.90
53204;DHT22;39086;54.424;18.456;2023-07-13T10:21:33;20.10;99.90
53204;DHT22;39086;54.424;18.456;2023-07-13T10:22:43;20.10;99.90
53204;DHT22;39086;54.424;18.456;2023-07-13T10:23:50;20.00;99.90
53204;DHT22;39086;54.424;18.456;2023-07-13T10:24:54;20.10;99.90
53204;DHT22;39086;54.424;18.456;2023-07-13T10:25:57;20.00;99.90
53204;DHT22;39086;54.424;18.456;2023-07-13T10:43:35;20.30;99.90
53204;DHT22;39086;54.424;18.456;2023-07-13T10:44:38;20.40;99.90
53204;DHT22;39086;54.424;18.456;2023-07-13T10:45:42;20.40;99.90
53204;DHT22;39086;54.424;18.456;2023-07-13T10:46:48;20.40;99.90
53204;DHT22;39086;54.424;18.456;2023-07-13T10:47:53;20.50;99.90
53204;DHT22;39086;54.424;18.456;2023-07-13T10:49:00;20.50;99.90
53204;DHT22;39086;54.424;18.456;2023-07-13T10:50:11;20.60;99.90
53204;DHT22;39086;54.424;18.456;2023-07-13T10:51:18;20.90;99.90
53204;DHT22;39086;54.424;18.456;2023-07-13T10:52:43;21.10;99.90
53204;DHT22;39086;54.424;18.456;2023-07-13T10:53:45;21.30;99.90
53204;DHT22;39086;54.424;18.456;2023-07-13T10:54:49;21.50;99.90
53204;DHT22;39086;54.424;18.456;2023-07-13T10:59:27;22.30;99.90
53204;DHT22;39086;54.424;18.456;2023-07-13T11:00:31;22.30;99.90
53204;DHT22;39086;54.424;18.456;2023-07-13T11:01:41;22.40;99.90
53204;DHT22;39086;54.424;18.456;2023-07-13T11:46:15;23.30;99.90
53204;DHT22;39086;54.424;18.456;2023-07-13T11:47:20;23.30;99.90
53204;DHT22;39086;54.424;18.456;2023-07-13T11:48:27;23.30;99.90
53204;DHT22;39086;54.424;18.456;2023-07-13T11:49:32;23.30;99.90
53204;DHT22;39086;54.424;18.456;2023-07-13T11:50:41;23.40;99.90
53204;DHT22;39086;54.424;18.456;2023-07-13T11:51:46;23.30;99.90
53204;DHT22;39086;54.424;18.456;2023-07-13T11:55:00;23.40;99.90
53204;DHT22;39086;54.424;18.456;2023-07-13T11:59:25;23.50;99.90
53204;DHT22;39086;54.424;18.456;2023-07-13T12:05:58;24.20;99.90
53204;DHT22;39086;54.424;18.456;2023-07-13T12:07:06;24.20;99.90
53204;DHT22;39086;54.424;18.456;2023-07-13T12:18:03;23.20;99.90
53204;DHT22;39086;54.424;18.456;2023-07-13T12:19:17;23.20;99.90
53204;DHT22;39086;54.424;18.456;2023-07-13T12:20:25;23.20;99.90
53204;DHT22;39086;54.424;18.456;2023-07-13T12:21:32;23.20;99.90
53204;DHT22;39086;54.424;18.456;2023-07-13T12:32:24;22.90;99.90
53204;DHT22;39086;54.424;18.456;2023-07-13T12:33:28;22.80;99.90
53204;DHT22;39086;54.424;18.456;2023-07-13T12:34:32;22.90;99.90
53204;DHT22;39086;54.424;18.456;2023-07-13T12:35:41;22.90;99.90
53204;DHT22;39086;54.424;18.456;2023-07-13T12:36:48;22.90;99.90
53204;DHT22;39086;54.424;18.456;2023-07-13T12:46:33;22.10;99.90
53204;DHT22;39086;54.424;18.456;2023-07-13T12:50:03;22.00;99.90
53204;DHT22;39086;54.424;18.456;2023-07-13T12:51:12;21.90;99.90
53204;DHT22;39086;54.424;18.456;2023-07-13T12:52:17;21.90;99.90
53204;DHT22;39086;54.424;18.456;2023-07-13T13:03:17;22.70;99.90
53204;DHT22;39086;54.424;18.456;2023-07-13T13:04:28;23.00;99.90
53204;DHT22;39086;54.424;18.456;2023-07-13T13:05:32;23.20;99.90
53204;DHT22;39086;54.424;18.456;2023-07-13T13:06:37;23.30;99.90
53204;DHT22;39086;54.424;18.456;2023-07-13T13:07:40;23.50;99.90
53204;DHT22;39086;54.424;18.456;2023-07-13T13:12:54;23.90;99.90
53204;DHT22;39086;54.424;18.456;2023-07-13T13:13:58;24.00;99.90
53204;DHT22;39086;54.424;18.456;2023-07-13T13:15:00;24.20;99.90
53204;DHT22;39086;54.424;18.456;2023-07-13T13:16:09;24.20;99.90
53204;DHT22;39086;54.424;18.456;2023-07-13T13:17:18;24.40;99.90
53204;DHT22;39086;54.424;18.456;2023-07-13T13:18:23;24.20;99.90
53204;DHT22;39086;54.424;18.456;2023-07-13T13:19:27;24.00;99.90
53204;DHT22;39086;54.424;18.456;2023-07-13T13:20:32;23.70;99.90
53204;DHT22;39086;54.424;18.456;2023-07-13T13:21:34;23.60;99.90
53204;DHT22;39086;54.424;18.456;2023-07-13T13:22:39;23.60;99.90
53204;DHT22;39086;54.424;18.456;2023-07-13T13:23:41;23.40;99.90
53204;DHT22;39086;54.424;18.456;2023-07-13T13:24:45;23.30;99.90
53204;DHT22;39086;54.424;18.456;2023-07-13T13:25:49;23.20;99.90
53204;DHT22;39086;54.424;18.456;2023-07-13T13:26:53;23.30;99.90
53204;DHT22;39086;54.424;18.456;2023-07-13T13:27:56;23.50;99.90
53204;DHT22;39086;54.424;18.456;2023-07-13T13:30:02;23.80;99.90
53204;DHT22;39086;54.424;18.456;2023-07-13T13:31:08;23.90;99.90
53204;DHT22;39086;54.424;18.456;2023-07-13T13:32:15;23.90;99.90
53204;DHT22;39086;54.424;18.456;2023-07-13T13:33:19;24.00;99.90
53204;DHT22;39086;54.424;18.456;2023-07-13T13:35:26;23.90;99.90
53204;DHT22;39086;54.424;18.456;2023-07-13T13:36:29;23.90;99.90
53204;DHT22;39086;54.424;18.456;2023-07-13T13:37:32;23.70;99.90
53204;DHT22;39086;54.424;18.456;2023-07-13T13:38:36;23.70;99.90
53204;DHT22;39086;54.424;18.456;2023-07-13T13:39:39;23.60;99.90
53204;DHT22;39086;54.424;18.456;2023-07-13T13:40:49;23.30;99.90
53204;DHT22;39086;54.424;18.456;2023-07-13T13:41:53;23.20;99.90
53204;DHT22;39086;54.424;18.456;2023-07-13T13:42:55;22.90;99.90
53204;DHT22;39086;54.424;18.456;2023-07-13T13:44:04;22.80;99.90
53204;DHT22;39086;54.424;18.456;2023-07-13T13:45:08;22.70;99.90
53204;DHT22;39086;54.424;18.456;2023-07-13T13:46:15;22.60;99.90
53204;DHT22;39086;54.424;18.456;2023-07-13T13:47:28;22.40;99.90
53204;DHT22;39086;54.424;18.456;2023-07-13T13:48:34;22.40;99.90
53204;DHT22;39086;54.424;18.456;2023-07-13T13:50:40;22.30;99.90
53204;DHT22;39086;54.424;18.456;2023-07-13T13:51:43;22.30;99.90
53204;DHT22;39086;54.424;18.456;2023-07-13T13:52:45;22.30;99.90
53204;DHT22;39086;54.424;18.456;2023-07-13T13:53:50;22.20;99.90
53204;DHT22;39086;54.424;18.456;2023-07-13T13:54:52;22.10;99.90
53204;DHT22;39086;54.424;18.456;2023-07-13T13:55:57;22.10;99.90
53204;DHT22;39086;54.424;18.456;2023-07-13T13:57:01;22.50;99.90
53204;DHT22;39086;54.424;18.456;2023-07-13T13:58:09;22.80;99.90
53204;DHT22;39086;54.424;18.456;2023-07-13T14:02:26;22.90;99.90
53204;DHT22;39086;54.424;18.456;2023-07-13T14:03:29;22.70;99.90
53204;DHT22;39086;54.424;18.456;2023-07-13T14:04:32;22.60;99.90
53204;DHT22;39086;54.424;18.456;2023-07-13T14:10:56;22.10;99.90
53204;DHT22;39086;54.424;18.456;2023-07-13T14:29:21;24.10;99.90
53204;DHT22;39086;54.424;18.456;2023-07-13T14:30:25;23.70;99.90
53204;DHT22;39086;54.424;18.456;2023-07-13T14:31:28;23.90;99.90
53204;DHT22;39086;54.424;18.456;2023-07-13T14:33:34;23.90;99.90
53204;DHT22;39086;54.424;18.456;2023-07-13T14:34:38;24.00;99.90
53204;DHT22;39086;54.424;18.456;2023-07-13T14:36:48;24.30;99.90
53204;DHT22;39086;54.424;18.456;2023-07-13T14:42:09;23.80;99.90
53204;DHT22;39086;54.424;18.456;2023-07-13T14:45:20;24.80;99.90
53204;DHT22;39086;54.424;18.456;2023-07-13T14:47:31;25.90;99.90
53204;DHT22;39086;54.424;18.456;2023-07-13T14:48:34;26.10;99.90
53204;DHT22;39086;54.424;18.456;2023-07-13T14:55:57;27.90;99.90
53204;DHT22;39086;54.424;18.456;2023-07-13T14:58:03;25.70;99.90
53204;DHT22;39086;54.424;18.456;2023-07-13T15:04:33;24.20;99.90
53204;DHT22;39086;54.424;18.456;2023-07-13T15:05:35;24.20;99.90
53204;DHT22;39086;54.424;18.456;2023-07-13T15:06:54;24.20;99.90
53204;DHT22;39086;54.424;18.456;2023-07-13T15:07:58;24.20;99.90
53204;DHT22;39086;54.424;18.456;2023-07-13T15:11:17;25.70;99.90
53204;DHT22;39086;54.424;18.456;2023-07-13T15:12:20;25.60;99.90
53204;DHT22;39086;54.424;18.456;2023-07-13T15:14:25;25.90;99.90
53204;DHT22;39086;54.424;18.456;2023-07-13T15:15:32;26.00;99.90
53204;DHT22;39086;54.424;18.456;2023-07-13T15:16:35;26.20;99.90
53204;DHT22;39086;54.424;18.456;2023-07-13T15:18:42;26.30;99.90
53204;DHT22;39086;54.424;18.456;2023-07-13T15:19:46;26.80;99.90
53204;DHT22;39086;54.424;18.456;2023-07-13T15:22:56;26.40;99.90
53204;DHT22;39086;54.424;18.456;2023-07-13T15:24:00;26.60;99.90
53204;DHT22;39086;54.424;18.456;2023-07-13T15:25:03;26.20;99.90
53204;DHT22;39086;54.424;18.456;2023-07-13T15:26:11;26.10;99.90
53204;DHT22;39086;54.424;18.456;2023-07-13T15:27:16;25.80;99.90
53204;DHT22;39086;54.424;18.456;2023-07-13T15:28:19;25.50;99.90
53204;DHT22;39086;54.424;18.456;2023-07-13T15:29:21;25.40;99.90
53204;DHT22;39086;54.424;18.456;2023-07-13T15:32:33;24.90;99.90
53204;DHT22;39086;54.424;18.456;2023-07-13T15:33:35;24.80;99.90
53204;DHT22;39086;54.424;18.456;2023-07-13T15:34:39;24.80;99.90
53204;DHT22;39086;54.424;18.456;2023-07-13T15:35:41;25.00;99.90
53204;DHT22;39086;54.424;18.456;2023-07-13T15:36:44;25.00;99.90
53204;DHT22;39086;54.424;18.456;2023-07-13T15:40:56;25.30;99.90
53204;DHT22;39086;54.424;18.456;2023-07-13T15:41:59;25.30;99.90
53204;DHT22;39086;54.424;18.456;2023-07-13T15:43:08;25.40;99.90
53204;DHT22;39086;54.424;18.456;2023-07-13T15:44:24;25.30;99.90
53204;DHT22;39086;54.424;18.456;2023-07-13T15:45:27;24.80;99.90
53204;DHT22;39086;54.424;18.456;2023-07-13T15:46:30;24.60;99.90
53204;DHT22;39086;54.424;18.456;2023-07-13T15:47:32;24.40;99.90
53204;DHT22;39086;54.424;18.456;2023-07-13T15:48:38;24.50;99.90
53204;DHT22;39086;54.424;18.456;2023-07-13T15:49:41;24.50;99.90
53204;DHT22;39086;54.424;18.456;2023-07-13T15:50:46;24.50;99.90
53204;DHT22;39086;54.424;18.456;2023-07-13T15:51:49;24.40;99.90
53204;DHT22;39086;54.424;18.456;2023-07-13T15:52:54;24.30;99.90
53204;DHT22;39086;54.424;18.456;2023-07-13T15:53:59;24.20;99.90
53204;DHT22;39086;54.424;18.456;2023-07-13T15:55:07;24.20;99.90
53204;DHT22;39086;54.424;18.456;2023-07-13T15:56:21;24.10;99.90
53204;DHT22;39086;54.424;18.456;2023-07-13T15:57:25;24.10;99.90
53204;DHT22;39086;54.424;18.456;2023-07-13T15:58:28;24.00;99.90
53204;DHT22;39086;54.424;18.456;2023-07-13T16:16:35;22.90;99.90
53204;DHT22;39086;54.424;18.456;2023-07-13T16:35:52;21.20;99.90
53204;DHT22;39086;54.424;18.456;2023-07-13T16:36:54;21.30;99.90
53204;DHT22;39086;54.424;18.456;2023-07-13T16:37:58;21.30;99.90
53204;DHT22;39086;54.424;18.456;2023-07-13T16:39:11;21.30;99.90
53204;DHT22;39086;54.424;18.456;2023-07-13T16:40:21;21.30;99.90
53204;DHT22;39086;54.424;18.456;2023-07-13T16:41:24;21.10;99.90
53204;DHT22;39086;54.424;18.456;2023-07-13T16:49:55;20.60;99.90
53204;DHT22;39086;54.424;18.456;2023-07-13T16:50:59;20.60;99.90
53204;DHT22;39086;54.424;18.456;2023-07-13T16:52:02;20.50;99.90
53204;DHT22;39086;54.424;18.456;2023-07-13T16:53:13;20.70;99.90
53204;DHT22;39086;54.424;18.456;2023-07-13T16:54:17;20.60;99.90
53204;DHT22;39086;54.424;18.456;2023-07-13T16:55:22;20.40;99.90
53204;DHT22;39086;54.424;18.456;2023-07-13T16:56:29;20.40;99.90
53204;DHT22;39086;54.424;18.456;2023-07-13T16:57:33;20.30;99.90
53204;DHT22;39086;54.424;18.456;2023-07-13T16:58:35;20.40;99.90
53204;DHT22;39086;54.424;18.456;2023-07-13T16:59:40;20.40;99.90
53204;DHT22;39086;54.424;18.456;2023-07-13T17:01:46;20.10;99.90
53204;DHT22;39086;54.424;18.456;2023-07-13T17:02:48;20.30;99.90
53204;DHT22;39086;54.424;18.456;2023-07-13T17:18:04;20.10;99.90
53204;DHT22;39086;54.424;18.456;2023-07-13T17:19:15;20.10;99.90
53204;DHT22;39086;54.424;18.456;2023-07-13T17:20:21;20.30;99.90
53204;DHT22;39086;54.424;18.456;2023-07-13T17:21:25;20.20;99.90
53204;DHT22;39086;54.424;18.456;2023-07-13T17:22:27;20.10;99.90
53204;DHT22;39086;54.424;18.456;2023-07-13T17:51:29;19.50;99.90
53204;DHT22;39086;54.424;18.456;2023-07-13T17:52:32;19.70;99.90
53204;DHT22;39086;54.424;18.456;2023-07-13T17:53:34;19.70;99.90
53204;DHT22;39086;54.424;18.456;2023-07-13T17:54:37;19.70;99.90
53204;DHT22;39086;54.424;18.456;2023-07-13T17:55:40;19.60;99.90
53204;DHT22;39086;54.424;18.456;2023-07-13T17:56:43;19.60;99.90
53204;DHT22;39086;54.424;18.456;2023-07-13T18:07:25;19.10;99.90
53204;DHT22;39086;54.424;18.456;2023-07-13T18:08:33;19.50;99.90